createdAt,value
2018-03-26T00:00:12.065Z,7.30
2018-03-26T00:02:39.643Z,7.30
2018-03-26T00:05:07.924Z,7.30
2018-03-26T00:07:35.501Z,7.30
2018-03-26T00:10:03.031Z,7.30
2018-03-26T00:12:30.581Z,7.30
2018-03-26T00:14:58.131Z,7.20
2018-03-26T00:17:25.661Z,7.20
2018-03-26T00:19:53.171Z,7.20
2018-03-26T00:22:21.493Z,7.10
2018-03-26T00:24:49.050Z,7.10
2018-03-26T00:27:16.710Z,7.10
2018-03-26T00:29:44.213Z,7.10
2018-03-26T00:32:12.678Z,7.10
2018-03-26T00:34:40.187Z,7.10
2018-03-26T00:37:08.500Z,7.00
2018-03-26T00:39:36.020Z,7.00
2018-03-26T00:42:03.556Z,7.00
2018-03-26T00:44:31.378Z,7.00
2018-03-26T00:46:59.796Z,7.00
2018-03-26T00:49:27.310Z,7.00
2018-03-26T00:51:54.847Z,7.00
2018-03-26T00:54:23.119Z,7.00
2018-03-26T00:56:50.671Z,6.90
2018-03-26T00:59:18.201Z,7.00
2018-03-26T01:01:45.730Z,7.00
2018-03-26T01:04:14.244Z,6.90
2018-03-26T01:06:41.764Z,6.90
2018-03-26T01:09:09.297Z,6.90
2018-03-26T01:11:36.831Z,6.90
2018-03-26T01:14:05.128Z,6.90
2018-03-26T01:16:32.659Z,6.90
2018-03-26T01:19:00.188Z,6.90
2018-03-26T01:21:27.703Z,6.90
2018-03-26T01:23:55.251Z,6.90
2018-03-26T01:26:22.788Z,6.90
2018-03-26T01:28:50.326Z,6.90
2018-03-26T01:31:18.641Z,6.90
2018-03-26T01:33:46.184Z,6.90
2018-03-26T01:36:15.052Z,6.90
2018-03-26T01:38:42.579Z,6.90
2018-03-26T01:41:10.862Z,6.80
2018-03-26T01:43:38.397Z,6.80
2018-03-26T01:46:05.931Z,6.80
2018-03-26T01:48:34.233Z,6.80
2018-03-26T01:51:01.756Z,6.80
2018-03-26T01:53:29.293Z,6.80
2018-03-26T01:55:56.828Z,6.80
2018-03-26T01:58:24.377Z,6.80
2018-03-26T02:00:51.887Z,6.80
2018-03-26T02:03:19.422Z,6.80
2018-03-26T02:05:46.950Z,6.80
2018-03-26T02:08:15.600Z,6.80
2018-03-26T02:10:43.140Z,6.80
2018-03-26T02:13:10.688Z,6.80
2018-03-26T02:15:38.209Z,6.90
2018-03-26T02:18:06.500Z,6.80
2018-03-26T02:20:34.055Z,6.80
2018-03-26T02:23:01.576Z,6.70
2018-03-26T02:25:29.186Z,6.80
2018-03-26T02:27:57.585Z,6.70
2018-03-26T02:30:25.152Z,6.70
2018-03-26T02:32:52.664Z,6.70
2018-03-26T02:35:20.204Z,6.60
2018-03-26T02:37:48.557Z,6.50
2018-03-26T02:40:16.856Z,6.50
2018-03-26T02:42:44.370Z,6.50
2018-03-26T02:45:11.940Z,6.50
2018-03-26T02:47:39.463Z,6.50
2018-03-26T02:50:07.002Z,6.50
2018-03-26T02:52:34.524Z,6.50
2018-03-26T02:55:02.830Z,6.60
2018-03-26T02:57:30.377Z,6.50
2018-03-26T02:59:57.913Z,6.60
2018-03-26T03:02:25.447Z,6.60
2018-03-26T03:04:52.976Z,6.70
2018-03-26T03:07:21.269Z,6.70
2018-03-26T03:09:48.801Z,6.60
2018-03-26T03:12:17.264Z,6.70
2018-03-26T03:14:44.792Z,6.70
2018-03-26T03:17:13.115Z,6.60
2018-03-26T03:19:40.652Z,6.60
2018-03-26T03:22:08.165Z,6.60
2018-03-26T03:24:35.703Z,6.60
2018-03-26T03:27:03.224Z,6.60
2018-03-26T03:29:31.575Z,6.60
2018-03-26T03:31:59.101Z,6.60
2018-03-26T03:34:26.625Z,6.60
2018-03-26T03:36:54.166Z,6.60
2018-03-26T03:39:21.768Z,6.60
2018-03-26T03:41:50.063Z,6.60
2018-03-26T03:44:17.581Z,6.60
2018-03-26T03:46:45.893Z,6.60
2018-03-26T03:49:13.416Z,6.50
2018-03-26T03:51:40.952Z,6.60
2018-03-26T03:54:08.479Z,6.60
2018-03-26T03:56:36.785Z,6.60
2018-03-26T03:59:04.318Z,6.60
2018-03-26T04:01:31.871Z,6.60
2018-03-26T04:03:59.409Z,6.70
2018-03-26T04:06:26.961Z,6.60
2018-03-26T04:08:54.492Z,6.50
2018-03-26T04:11:22.016Z,6.50
2018-03-26T04:13:49.538Z,6.50
2018-03-26T04:16:18.348Z,6.60
2018-03-26T04:18:45.856Z,6.60
2018-03-26T04:21:14.192Z,6.60
2018-03-26T04:23:41.817Z,6.50
2018-03-26T04:26:09.380Z,6.50
2018-03-26T04:28:36.892Z,6.60
2018-03-26T04:31:04.428Z,6.70
2018-03-26T04:33:31.969Z,6.70
2018-03-26T04:35:59.496Z,6.60
2018-03-26T04:38:27.023Z,6.60
2018-03-26T04:40:55.329Z,6.50
2018-03-26T04:43:22.885Z,6.50
2018-03-26T04:45:50.421Z,6.50
2018-03-26T04:48:19.189Z,6.60
2018-03-26T04:50:46.737Z,6.60
2018-03-26T04:53:14.293Z,6.60
2018-03-26T04:55:41.807Z,6.60
2018-03-26T04:58:09.353Z,6.70
2018-03-26T05:00:36.876Z,6.70
2018-03-26T05:03:05.207Z,6.70
2018-03-26T05:05:32.737Z,6.70
2018-03-26T05:08:00.277Z,6.70
2018-03-26T05:10:27.797Z,6.70
2018-03-26T05:12:55.329Z,6.70
2018-03-26T05:15:22.847Z,6.80
2018-03-26T05:17:50.378Z,6.80
2018-03-26T05:20:17.897Z,6.70
2018-03-26T05:22:46.264Z,6.70
2018-03-26T05:25:13.784Z,6.70
2018-03-26T05:27:41.316Z,6.80
2018-03-26T05:30:08.841Z,6.70
2018-03-26T05:32:37.149Z,6.80
2018-03-26T05:35:04.696Z,6.70
2018-03-26T05:37:32.253Z,6.70
2018-03-26T05:39:59.780Z,6.70
2018-03-26T05:42:27.329Z,6.60
2018-03-26T05:44:54.885Z,6.50
2018-03-26T05:47:22.442Z,6.50
2018-03-26T05:49:49.961Z,6.50
2018-03-26T05:52:17.518Z,6.50
2018-03-26T05:54:45.040Z,6.50
2018-03-26T05:57:12.577Z,6.50
2018-03-26T05:59:40.224Z,6.50
2018-03-26T06:02:07.797Z,6.50
2018-03-26T06:04:35.321Z,6.40
2018-03-26T06:07:02.866Z,6.40
2018-03-26T06:09:30.419Z,6.40
2018-03-26T06:11:57.996Z,6.40
2018-03-26T06:14:25.550Z,6.40
2018-03-26T06:17:05.078Z,6.40
2018-03-26T06:19:33.438Z,6.50
2018-03-26T06:22:00.993Z,6.50
2018-03-26T06:24:29.305Z,6.60
2018-03-26T06:26:56.846Z,6.60
2018-03-26T06:29:24.392Z,6.50
2018-03-26T06:31:51.955Z,6.60
2018-03-26T06:34:19.497Z,6.60
2018-03-26T06:36:52.856Z,6.60
2018-03-26T06:39:26.946Z,6.50
2018-03-26T06:41:54.483Z,6.60
2018-03-26T06:44:22.025Z,6.50
2018-03-26T06:46:49.539Z,6.50
2018-03-26T06:49:17.858Z,6.60
2018-03-26T06:51:45.367Z,6.50
2018-03-26T06:54:12.940Z,6.50
2018-03-26T06:56:40.506Z,6.50
2018-03-26T06:59:07.999Z,6.50
2018-03-26T07:01:36.300Z,6.60
2018-03-26T07:04:03.827Z,6.60
2018-03-26T07:06:31.480Z,6.60
2018-03-26T07:09:00.540Z,6.70
2018-03-26T07:11:28.102Z,6.70
2018-03-26T07:13:55.625Z,6.70
2018-03-26T07:16:23.294Z,6.70
2018-03-26T07:18:50.807Z,6.80
2018-03-26T07:21:18.419Z,6.80
2018-03-26T07:23:45.996Z,6.80
2018-03-26T07:26:13.544Z,6.90
2018-03-26T07:28:41.078Z,7.00
2018-03-26T07:31:08.616Z,7.00
2018-03-26T07:33:36.901Z,7.00
2018-03-26T07:36:04.440Z,7.00
2018-03-26T07:38:31.976Z,7.10
2018-03-26T07:41:00.276Z,7.30
2018-03-26T07:43:27.793Z,7.30
2018-03-26T07:45:55.466Z,7.40
2018-03-26T07:48:24.001Z,7.40
2018-03-26T07:50:51.542Z,7.40
2018-03-26T07:53:19.093Z,7.40
2018-03-26T07:55:46.706Z,7.50
2018-03-26T07:58:15.009Z,7.60
2018-03-26T08:00:42.622Z,7.60
2018-03-26T08:03:10.996Z,7.70
2018-03-26T08:05:38.584Z,7.70
2018-03-26T08:08:06.152Z,7.70
2018-03-26T08:10:33.688Z,7.70
2018-03-26T08:13:01.214Z,7.80
2018-03-26T08:15:28.764Z,7.80
2018-03-26T08:17:56.342Z,7.90
2018-03-26T08:20:23.973Z,7.90
2018-03-26T08:22:51.508Z,7.90
2018-03-26T08:25:19.048Z,7.80
2018-03-26T08:27:46.576Z,7.80
2018-03-26T08:30:14.155Z,7.70
2018-03-26T08:32:43.204Z,7.90
2018-03-26T08:35:10.736Z,7.90
2018-03-26T08:37:38.277Z,8.00
2018-03-26T08:40:05.831Z,8.00
2018-03-26T08:42:33.373Z,8.00
2018-03-26T08:45:00.904Z,8.10
2018-03-26T08:47:28.441Z,8.20
2018-03-26T08:49:56.048Z,8.20
2018-03-26T08:52:23.525Z,8.30
2018-03-26T08:54:51.979Z,8.30
2018-03-26T08:57:20.289Z,8.40
2018-03-26T08:59:47.821Z,8.30
2018-03-26T09:02:15.356Z,8.40
2018-03-26T09:04:42.872Z,8.50
2018-03-26T09:07:11.176Z,8.40
2018-03-26T09:09:38.730Z,8.40
2018-03-26T09:12:06.294Z,8.40
2018-03-26T09:14:33.818Z,8.50
2018-03-26T09:17:01.348Z,8.40
2018-03-26T09:19:28.859Z,8.40
2018-03-26T09:21:57.166Z,8.20
2018-03-26T09:24:26.122Z,8.30
2018-03-26T09:26:53.648Z,8.30
2018-03-26T09:29:22.012Z,8.40
2018-03-26T09:31:50.292Z,8.40
2018-03-26T09:34:17.858Z,8.40
2018-03-26T09:36:45.377Z,8.40
2018-03-26T09:39:12.959Z,8.50
2018-03-26T09:41:40.477Z,8.60
2018-03-26T09:44:08.029Z,8.60
2018-03-26T09:46:35.557Z,8.50
2018-03-26T09:49:03.856Z,8.50
2018-03-26T09:51:32.217Z,8.60
2018-03-26T09:53:59.752Z,8.60
2018-03-26T09:56:27.265Z,8.80
2018-03-26T09:58:54.810Z,8.80
2018-03-26T10:01:22.345Z,8.90
2018-03-26T10:03:49.893Z,9.00
2018-03-26T10:06:17.430Z,9.10
2018-03-26T10:08:45.764Z,8.90
2018-03-26T10:11:13.380Z,8.90
2018-03-26T10:13:40.954Z,8.90
2018-03-26T10:16:08.461Z,8.70
2018-03-26T10:18:36.014Z,8.80
2018-03-26T10:21:03.552Z,8.70
2018-03-26T10:23:31.190Z,8.90
2018-03-26T10:25:59.543Z,8.90
2018-03-26T10:28:28.220Z,8.90
2018-03-26T10:30:55.735Z,8.90
2018-03-26T10:33:24.142Z,8.70
2018-03-26T10:35:51.687Z,8.60
2018-03-26T10:38:19.337Z,8.80
2018-03-26T10:40:47.072Z,8.80
2018-03-26T10:43:14.615Z,8.70
2018-03-26T10:45:42.136Z,8.80
2018-03-26T10:48:09.761Z,8.70
2018-03-26T10:50:37.319Z,8.60
2018-03-26T10:53:05.631Z,8.60
2018-03-26T10:55:33.165Z,8.50
2018-03-26T10:58:00.718Z,8.60
2018-03-26T11:00:29.213Z,8.30
2018-03-26T11:02:56.712Z,8.30
2018-03-26T11:05:24.247Z,8.20
2018-03-26T11:07:51.768Z,8.30
2018-03-26T11:10:20.077Z,8.10
2018-03-26T11:12:48.468Z,7.90
2018-03-26T11:15:16.016Z,7.90
2018-03-26T11:17:43.540Z,7.70
2018-03-26T11:20:11.087Z,7.70
2018-03-26T11:22:38.634Z,7.70
2018-03-26T11:25:06.160Z,7.60
2018-03-26T11:27:33.714Z,7.50
2018-03-26T11:30:01.257Z,7.60
2018-03-26T11:32:29.124Z,7.40
2018-03-26T11:34:56.695Z,7.40
2018-03-26T11:37:24.986Z,7.30
2018-03-26T11:39:52.523Z,7.30
2018-03-26T11:42:20.053Z,7.20
2018-03-26T11:44:47.602Z,7.10
2018-03-26T11:47:15.165Z,7.10
2018-03-26T11:49:42.732Z,7.20
2018-03-26T11:52:10.223Z,7.20
2018-03-26T11:54:38.516Z,7.20
2018-03-26T11:57:06.041Z,7.20
2018-03-26T11:59:33.581Z,7.30
2018-03-26T12:02:01.110Z,7.30
2018-03-26T12:04:30.337Z,7.10
2018-03-26T12:06:57.867Z,7.10
2018-03-26T12:09:25.424Z,7.10
2018-03-26T12:11:52.961Z,7.20
2018-03-26T12:14:20.538Z,7.20
2018-03-26T12:16:48.311Z,7.30
2018-03-26T12:19:16.645Z,7.30
2018-03-26T12:21:44.164Z,7.20
2018-03-26T12:27:17.033Z,7.20
2018-03-26T12:29:56.632Z,7.20
2018-03-26T12:32:24.927Z,7.10
2018-03-26T12:35:04.552Z,7.10
2018-03-26T12:37:32.139Z,7.10
2018-03-26T12:39:59.725Z,7.00
2018-03-26T12:42:27.218Z,7.10
2018-03-26T12:45:06.782Z,7.10
2018-03-26T12:47:35.056Z,7.10
2018-03-26T12:50:02.584Z,7.00
2018-03-26T12:52:56.567Z,7.10
2018-03-26T12:55:24.101Z,7.10
2018-03-26T13:01:10.833Z,7.40
2018-03-26T13:03:38.360Z,7.40
2018-03-26T13:06:05.886Z,7.60
2018-03-26T13:08:33.404Z,7.70
2018-03-26T13:11:01.722Z,7.90
2018-03-26T13:13:30.141Z,7.80
2018-03-26T13:15:57.790Z,7.80
2018-03-26T13:18:26.076Z,7.80
2018-03-26T13:20:53.616Z,7.80
2018-03-26T13:23:21.158Z,7.70
2018-03-26T13:25:48.702Z,7.80
2018-03-26T13:28:16.255Z,7.70
2018-03-26T13:30:43.782Z,7.80
2018-03-26T13:33:11.311Z,7.90
2018-03-26T13:35:39.610Z,7.60
2018-03-26T13:38:07.115Z,7.60
2018-03-26T13:40:35.424Z,7.70
2018-03-26T13:43:02.972Z,7.70
2018-03-26T13:45:30.591Z,7.70
2018-03-26T13:47:58.896Z,7.60
2018-03-26T13:50:27.957Z,7.60
2018-03-26T13:52:55.509Z,7.60
2018-03-26T13:55:23.049Z,7.70
2018-03-26T13:57:50.578Z,7.80
2018-03-26T14:00:18.139Z,8.00
2018-03-26T14:02:45.692Z,8.10
2018-03-26T14:05:13.276Z,8.20
2018-03-26T14:07:41.561Z,8.40
2018-03-26T14:10:20.967Z,8.40
2018-03-26T14:13:00.321Z,8.70
2018-03-26T14:15:39.609Z,9.00
2018-03-26T14:18:07.904Z,8.70
2018-03-26T14:20:35.460Z,8.70
2018-03-26T14:23:02.994Z,8.60
2018-03-26T14:25:30.535Z,8.50
2018-03-26T14:27:58.062Z,8.50
2018-03-26T14:30:25.600Z,8.50
2018-03-26T14:32:53.900Z,8.50
2018-03-26T14:38:18.037Z,8.60
2018-03-26T14:40:45.613Z,8.80
2018-03-26T14:43:13.198Z,8.90
2018-03-26T14:45:40.708Z,9.10
2018-03-26T14:48:08.220Z,9.40
2018-03-26T14:50:35.772Z,9.80
2018-03-26T14:53:03.301Z,9.80
2018-03-26T14:55:30.861Z,9.80
2018-03-26T14:57:59.381Z,9.70
2018-03-26T15:00:27.694Z,9.60
2018-03-26T15:02:55.251Z,9.60
2018-03-26T15:05:22.874Z,9.80
2018-03-26T15:07:50.412Z,9.80
2018-03-26T15:10:17.972Z,9.70
2018-03-26T15:12:45.531Z,9.70
2018-03-26T15:15:13.194Z,9.60
2018-03-26T15:17:40.736Z,9.30
2018-03-26T15:20:08.248Z,9.20
2018-03-26T15:22:35.784Z,9.20
2018-03-26T15:25:03.329Z,9.30
2018-03-26T15:27:30.875Z,9.40
2018-03-26T15:29:58.408Z,9.40
2018-03-26T15:32:25.956Z,9.20
2018-03-26T15:34:53.725Z,9.10
2018-03-26T15:37:21.266Z,9.10
2018-03-26T15:39:48.788Z,9.00
2018-03-26T15:42:16.362Z,9.00
2018-03-26T15:44:43.880Z,9.00
2018-03-26T15:47:11.451Z,9.10
2018-03-26T15:49:38.976Z,9.30
2018-03-26T15:52:06.539Z,9.40
2018-03-26T15:54:34.052Z,9.70
2018-03-26T15:57:01.624Z,9.80
2018-03-26T15:59:29.150Z,10.00
2018-03-26T16:01:56.197Z,10.50
2018-03-26T16:04:23.729Z,11.10
2018-03-26T16:06:51.272Z,11.40
2018-03-26T16:09:18.801Z,11.30
2018-03-26T16:11:46.380Z,11.00
2018-03-26T16:14:13.929Z,10.70
2018-03-26T16:16:41.612Z,10.70
2018-03-26T16:19:09.938Z,12.30
2018-03-26T16:21:37.590Z,12.20
2018-03-26T16:24:05.099Z,12.50
2018-03-26T16:26:32.671Z,12.40
2018-03-26T16:29:00.234Z,12.50
2018-03-26T16:31:27.785Z,12.40
2018-03-26T16:33:55.315Z,11.90
2018-03-26T16:36:22.871Z,11.30
2018-03-26T16:38:50.394Z,10.60
2018-03-26T16:41:29.924Z,9.80
2018-03-26T16:43:57.441Z,9.60
2018-03-26T16:46:25.372Z,9.30
2018-03-26T16:48:52.899Z,9.10
2018-03-26T16:51:20.427Z,8.80
2018-03-26T16:53:47.965Z,8.60
2018-03-26T16:56:15.474Z,8.50
2018-03-26T16:58:43.026Z,8.30
2018-03-26T17:01:10.550Z,8.00
2018-03-26T17:03:38.138Z,7.90
2018-03-26T17:06:05.657Z,7.60
2018-03-26T17:08:33.209Z,7.40
2018-03-26T17:11:00.806Z,7.40
2018-03-26T17:13:28.283Z,7.20
2018-03-26T17:15:55.818Z,7.10
2018-03-26T17:18:23.429Z,7.00
2018-03-26T17:20:51.033Z,6.90
2018-03-26T17:23:18.587Z,6.80
2018-03-26T17:25:46.100Z,6.80
2018-03-26T17:28:13.696Z,6.70
2018-03-26T17:30:42.017Z,6.40
2018-03-26T17:33:09.588Z,6.40
2018-03-26T17:35:38.036Z,6.30
2018-03-26T17:38:05.568Z,6.20
2018-03-26T17:40:33.085Z,6.20
2018-03-26T17:43:01.380Z,6.00
2018-03-26T17:45:28.904Z,6.00
2018-03-26T17:47:56.444Z,6.00
2018-03-26T17:50:24.894Z,5.90
2018-03-26T17:52:52.435Z,5.80
2018-03-26T17:55:19.975Z,5.70
2018-03-26T17:57:47.574Z,5.60
2018-03-26T18:00:15.116Z,5.50
2018-03-26T18:02:42.654Z,5.40
2018-03-26T18:05:10.219Z,5.30
2018-03-26T18:07:37.753Z,5.20
2018-03-26T18:10:05.319Z,5.20
2018-03-26T18:12:33.649Z,5.10
2018-03-26T18:15:01.171Z,5.00
2018-03-26T18:17:28.716Z,5.00
2018-03-26T18:19:56.249Z,5.00
2018-03-26T18:22:24.641Z,4.80
2018-03-26T18:24:52.373Z,4.80
2018-03-26T18:27:19.891Z,4.70
2018-03-26T18:29:47.504Z,4.70
2018-03-26T18:32:15.012Z,4.70
2018-03-26T18:34:42.731Z,4.60
2018-03-26T18:37:11.017Z,4.50
2018-03-26T18:39:38.604Z,4.50
2018-03-26T18:42:06.121Z,4.50
2018-03-26T18:44:33.657Z,4.50
2018-03-26T18:47:01.177Z,4.50
2018-03-26T18:49:29.492Z,4.40
2018-03-26T18:51:57.638Z,4.40
2018-03-26T18:54:25.198Z,4.40
2018-03-26T18:56:52.742Z,4.40
2018-03-26T18:59:20.257Z,4.30
2018-03-26T19:01:47.855Z,4.30
2018-03-26T19:04:16.181Z,4.30
2018-03-26T19:06:43.761Z,4.30
2018-03-26T19:09:11.323Z,4.30
2018-03-26T19:11:40.543Z,4.20
2018-03-26T19:14:08.081Z,4.10
2018-03-26T19:16:35.624Z,4.20
2018-03-26T19:19:03.173Z,4.20
2018-03-26T19:21:30.729Z,4.10
2018-03-26T19:23:58.274Z,4.20
2018-03-26T19:26:25.842Z,4.40
2018-03-26T19:28:53.387Z,4.40
2018-03-26T19:31:20.942Z,4.40
2018-03-26T19:33:48.465Z,4.30
2018-03-26T19:36:16.113Z,4.20
2018-03-26T19:38:43.656Z,4.10
2018-03-26T19:41:11.188Z,4.00
2018-03-26T19:43:39.606Z,4.00
2018-03-26T19:46:07.186Z,3.90
2018-03-26T19:48:34.746Z,3.90
2018-03-26T19:51:02.301Z,3.80
2018-03-26T19:53:30.816Z,3.80
2018-03-26T19:55:59.121Z,3.70
2018-03-26T19:58:26.647Z,3.70
2018-03-26T20:00:54.293Z,3.80
2018-03-26T20:03:21.825Z,3.80
2018-03-26T20:05:50.149Z,3.90
2018-03-26T20:08:17.668Z,3.80
2018-03-26T20:10:45.270Z,3.90
2018-03-26T20:13:12.766Z,3.90
2018-03-26T20:15:40.305Z,3.90
2018-03-26T20:18:07.825Z,3.90
2018-03-26T20:20:35.377Z,3.90
2018-03-26T20:23:02.900Z,4.00
2018-03-26T20:25:30.440Z,4.00
2018-03-26T20:27:57.990Z,4.00
2018-03-26T20:30:25.533Z,3.90
2018-03-26T20:32:53.063Z,3.90
2018-03-26T20:35:21.387Z,3.90
2018-03-26T20:37:48.961Z,3.90
2018-03-26T20:40:17.285Z,3.90
2018-03-26T20:42:44.843Z,3.90
2018-03-26T20:45:12.381Z,4.00
2018-03-26T20:47:39.962Z,3.90
2018-03-26T20:50:07.495Z,3.90
2018-03-26T20:52:35.022Z,3.90
2018-03-26T20:55:03.421Z,3.90
2018-03-26T20:57:30.981Z,3.90
2018-03-26T20:59:58.501Z,3.90
2018-03-26T21:02:26.840Z,3.80
2018-03-26T21:04:55.119Z,3.90
2018-03-26T21:07:22.691Z,3.90
2018-03-26T21:09:50.304Z,3.80
2018-03-26T21:12:17.887Z,3.90
2018-03-26T21:14:45.418Z,3.90
2018-03-26T21:17:13.787Z,3.80
2018-03-26T21:19:42.247Z,3.80
2018-03-26T21:22:10.555Z,3.80
2018-03-26T21:24:38.128Z,3.80
2018-03-26T21:27:06.619Z,3.90
2018-03-26T21:29:34.360Z,3.90
2018-03-26T21:32:02.659Z,3.90
2018-03-26T21:34:31.160Z,3.90
2018-03-26T21:36:58.726Z,3.90
2018-03-26T21:39:26.278Z,3.90
2018-03-26T21:41:54.581Z,3.80
2018-03-26T21:44:22.181Z,3.80
2018-03-26T21:46:50.266Z,3.80
2018-03-26T21:49:17.949Z,3.80
2018-03-26T21:51:45.539Z,3.70
2018-03-26T21:54:13.129Z,3.70
2018-03-26T21:56:40.673Z,3.70
2018-03-26T21:59:08.205Z,3.70
2018-03-26T22:01:35.746Z,3.70
2018-03-26T22:04:03.272Z,3.70
2018-03-26T22:06:30.795Z,3.70
2018-03-26T22:08:59.089Z,3.60
2018-03-26T22:11:26.624Z,3.60
2018-03-26T22:13:54.172Z,3.70
2018-03-26T22:16:21.704Z,3.70
2018-03-26T22:18:50.042Z,3.60
2018-03-26T22:21:17.637Z,3.60
2018-03-26T22:23:45.178Z,3.60
2018-03-26T22:26:12.844Z,3.60
2018-03-26T22:28:40.378Z,3.60
2018-03-26T22:31:07.917Z,3.60
2018-03-26T22:33:35.444Z,3.60
2018-03-26T22:36:02.991Z,3.60
2018-03-26T22:38:30.512Z,3.60
2018-03-26T22:40:58.835Z,3.50
2018-03-26T22:43:26.407Z,3.50
2018-03-26T22:45:54.927Z,3.50
2018-03-26T22:48:22.535Z,3.50
2018-03-26T22:50:51.020Z,3.40
2018-03-26T22:53:18.556Z,3.40
2018-03-26T22:55:46.839Z,3.40
2018-03-26T22:58:14.423Z,3.40
2018-03-26T23:00:41.944Z,3.40
2018-03-26T23:03:09.480Z,3.50
2018-03-26T23:05:37.008Z,3.50
2018-03-26T23:08:04.986Z,3.40
2018-03-26T23:10:32.524Z,3.40
2018-03-26T23:13:00.119Z,3.40
2018-03-26T23:15:27.620Z,3.40
2018-03-26T23:17:55.162Z,3.40
2018-03-26T23:20:22.716Z,3.50
2018-03-26T23:22:50.280Z,3.50
2018-03-26T23:25:17.813Z,3.50
2018-03-26T23:27:45.393Z,3.60
2018-03-26T23:30:13.755Z,3.40
2018-03-26T23:32:43.048Z,3.40
2018-03-26T23:35:11.536Z,3.40
2018-03-26T23:37:39.078Z,3.40
2018-03-26T23:40:06.595Z,3.40
2018-03-26T23:42:34.917Z,3.30
2018-03-26T23:45:02.458Z,3.30
2018-03-26T23:47:30.002Z,3.30
2018-03-26T23:49:57.526Z,3.30
2018-03-26T23:52:25.092Z,3.20
2018-03-26T23:54:52.617Z,3.20
2018-03-26T23:57:20.153Z,3.30
2018-03-26T23:59:47.724Z,3.40
